createdAt,value
2023-02-02T00:01:13.689Z,97767.28
2023-02-02T00:03:40.016Z,97780.03
2023-02-02T00:06:06.289Z,97765.50
2023-02-02T00:08:32.696Z,97767.53
2023-02-02T00:10:59.006Z,97759.91
2023-02-02T00:13:25.302Z,97768.09
2023-02-02T00:15:51.596Z,97760.28
2023-02-02T00:18:17.838Z,97771.34
2023-02-02T00:20:44.185Z,97777.66
2023-02-02T00:23:10.400Z,97769.03
2023-02-02T00:25:36.678Z,97771.88
2023-02-02T00:28:02.933Z,97772.84
2023-02-02T00:30:29.304Z,97771.16
2023-02-02T00:32:55.731Z,97775.59
2023-02-02T00:35:22.293Z,97769.63
2023-02-02T00:37:48.815Z,97766.88
2023-02-02T00:40:15.242Z,97782.78
2023-02-02T00:42:41.489Z,97778.41
2023-02-02T00:45:07.758Z,97774.06
2023-02-02T00:47:34.118Z,97779.25
2023-02-02T00:50:00.380Z,97777.56
2023-02-02T00:52:27.587Z,97784.41
2023-02-02T00:54:53.836Z,97793.91
2023-02-02T00:57:20.123Z,97785.84
2023-02-02T00:59:46.464Z,97792.13
2023-02-02T01:02:12.765Z,97789.38
2023-02-02T01:04:39.157Z,97781.31
2023-02-02T01:07:05.521Z,97787.31
2023-02-02T01:09:31.798Z,97797.88
2023-02-02T01:11:58.043Z,97793.28
2023-02-02T01:14:24.377Z,97799.28
2023-02-02T01:16:50.754Z,97787.53
2023-02-02T01:19:17.025Z,97796.19
2023-02-02T01:21:43.366Z,97794.25
2023-02-02T01:24:09.619Z,97792.03
2023-02-02T01:26:35.980Z,97806.06
2023-02-02T01:29:02.250Z,97803.88
2023-02-02T01:31:28.611Z,97809.09
2023-02-02T01:33:56.199Z,97808.75
2023-02-02T01:36:22.487Z,97813.72
2023-02-02T01:38:48.858Z,97821.38
2023-02-02T01:41:15.141Z,97824.47
2023-02-02T01:43:41.463Z,97822.50
2023-02-02T01:46:09.104Z,97824.00
2023-02-02T01:48:35.400Z,97837.75
2023-02-02T01:51:01.693Z,97848.88
2023-02-02T01:53:27.942Z,97833.59
2023-02-02T01:55:54.198Z,97846.53
2023-02-02T01:58:20.444Z,97843.53
2023-02-02T02:00:47.176Z,97844.25
2023-02-02T02:03:13.551Z,97853.47
2023-02-02T02:05:39.852Z,97854.75
2023-02-02T02:08:06.151Z,97850.94
2023-02-02T02:10:32.491Z,97859.38
2023-02-02T02:12:58.751Z,97857.97
2023-02-02T02:15:25.328Z,97849.66
2023-02-02T02:17:51.862Z,97862.38
2023-02-02T02:20:18.127Z,97851.41
2023-02-02T02:22:44.396Z,97852.88
2023-02-02T02:25:10.673Z,97856.00
2023-02-02T02:27:39.764Z,97850.34
2023-02-02T02:30:06.057Z,97858.75
2023-02-02T02:32:32.328Z,97861.88
2023-02-02T02:34:58.597Z,97852.72
2023-02-02T02:37:24.843Z,97850.53
2023-02-02T02:39:51.273Z,97850.16
2023-02-02T02:42:17.622Z,97855.13
2023-02-02T02:44:43.857Z,97865.16
2023-02-02T02:47:10.239Z,97867.22
2023-02-02T02:49:36.580Z,97860.53
2023-02-02T02:52:02.835Z,97868.97
2023-02-02T02:54:29.139Z,97871.81
2023-02-02T02:56:55.511Z,97875.75
2023-02-02T02:59:21.970Z,97873.34
2023-02-02T03:01:48.330Z,97872.75
2023-02-02T03:04:14.619Z,97874.81
2023-02-02T03:06:40.843Z,97871.56
2023-02-02T03:09:07.296Z,97870.19
2023-02-02T03:11:33.622Z,97867.72
2023-02-02T03:13:59.879Z,97865.25
2023-02-02T03:16:26.193Z,97865.59
2023-02-02T03:18:52.458Z,97868.44
2023-02-02T03:21:18.799Z,97869.38
2023-02-02T03:23:45.066Z,97868.16
2023-02-02T03:26:11.365Z,97869.44
2023-02-02T03:28:37.600Z,97866.41
2023-02-02T03:31:04.045Z,97875.63
2023-02-02T03:33:30.389Z,97882.22
2023-02-02T03:35:56.755Z,97889.81
2023-02-02T03:38:23.393Z,97887.34
2023-02-02T03:40:49.633Z,97895.75
2023-02-02T03:43:15.893Z,97893.34
2023-02-02T03:45:42.165Z,97894.59
2023-02-02T03:48:08.587Z,97895.03
2023-02-02T03:50:34.900Z,97890.19
2023-02-02T03:53:01.290Z,97900.22
2023-02-02T03:55:27.569Z,97896.97
2023-02-02T03:57:53.876Z,97893.94
2023-02-02T04:00:20.208Z,97901.31
2023-02-02T04:02:46.544Z,97902.56
2023-02-02T04:05:12.961Z,97897.72
2023-02-02T04:07:40.511Z,97905.88
2023-02-02T04:10:06.743Z,97901.63
2023-02-02T04:12:33.562Z,97906.31
2023-02-02T04:14:59.841Z,97909.19
2023-02-02T04:17:26.083Z,97912.06
2023-02-02T04:19:52.478Z,97897.41
2023-02-02T04:22:18.746Z,97909.88
2023-02-02T04:24:45.027Z,97905.81
2023-02-02T04:27:11.471Z,97901.53
2023-02-02T04:29:37.754Z,97904.63
2023-02-02T04:32:04.041Z,97910.16
2023-02-02T04:34:30.321Z,97902.41
2023-02-02T04:36:56.588Z,97906.31
2023-02-02T04:39:22.865Z,97911.03
2023-02-02T04:41:49.182Z,97912.88
2023-02-02T04:44:15.571Z,97916.75
2023-02-02T04:46:41.935Z,97909.03
2023-02-02T04:49:08.359Z,97912.72
2023-02-02T04:51:37.495Z,97920.09
2023-02-02T04:54:03.775Z,97918.47
2023-02-02T04:56:30.097Z,97921.53
2023-02-02T04:58:56.528Z,97917.28
2023-02-02T05:01:22.960Z,97920.16
2023-02-02T05:03:49.291Z,97916.91
2023-02-02T05:06:16.014Z,97921.38
2023-02-02T05:08:43.544Z,97920.78
2023-02-02T05:11:09.811Z,97920.22
2023-02-02T05:13:36.074Z,97916.97
2023-02-02T05:16:02.314Z,97932.88
2023-02-02T05:18:28.601Z,97926.97
2023-02-02T05:20:55.940Z,97922.69
2023-02-02T05:23:22.250Z,97926.38
2023-02-02T05:25:48.530Z,97924.78
2023-02-02T05:28:14.933Z,97927.41
2023-02-02T05:30:41.238Z,97925.78
2023-02-02T05:33:07.545Z,97928.44
2023-02-02T05:35:33.832Z,97922.31
2023-02-02T05:38:00.121Z,97922.53
2023-02-02T05:40:26.356Z,97920.69
2023-02-02T05:42:52.641Z,97929.69
2023-02-02T05:45:18.939Z,97929.88
2023-02-02T05:47:45.215Z,97929.88
2023-02-02T05:50:11.517Z,97937.25
2023-02-02T05:52:37.809Z,97946.00
2023-02-02T05:55:04.112Z,97947.03
2023-02-02T05:57:30.395Z,97948.06
2023-02-02T05:59:56.677Z,97957.06
2023-02-02T06:02:22.941Z,97956.22
2023-02-02T06:04:49.199Z,97965.22
2023-02-02T06:07:15.510Z,97960.94
2023-02-02T06:09:41.798Z,97961.97
2023-02-02T06:12:08.137Z,97954.22
2023-02-02T06:14:34.366Z,97958.69
2023-02-02T06:17:00.684Z,97959.13
2023-02-02T06:19:26.954Z,97954.03
2023-02-02T06:21:53.203Z,97961.19
2023-02-02T06:24:19.459Z,97969.34
2023-02-02T06:26:45.799Z,97962.44
2023-02-02T06:29:12.316Z,97983.63
2023-02-02T06:31:38.635Z,97974.25
2023-02-02T06:34:04.963Z,97976.31
2023-02-02T06:36:31.247Z,97974.69
2023-02-02T06:38:57.540Z,97973.88
2023-02-02T06:41:23.816Z,97966.97
2023-02-02T06:43:50.066Z,97979.63
2023-02-02T06:46:16.398Z,97973.72
2023-02-02T06:48:42.696Z,97980.84
2023-02-02T06:51:08.937Z,97987.97
2023-02-02T06:53:35.251Z,97994.31
2023-02-02T06:56:01.570Z,97983.94
2023-02-02T06:58:27.815Z,97984.94
2023-02-02T07:00:54.136Z,97985.97
2023-02-02T07:03:20.749Z,97993.91
2023-02-02T07:05:47.141Z,98000.03
2023-02-02T07:08:13.402Z,98009.00
2023-02-02T07:11:13.571Z,98004.72
2023-02-02T07:13:26.112Z,98018.19
2023-02-02T07:15:52.505Z,98018.78
2023-02-02T07:18:18.782Z,98034.22
2023-02-02T07:20:45.040Z,98038.94
2023-02-02T07:23:11.338Z,98044.03
2023-02-02T07:25:37.613Z,98037.44
2023-02-02T07:28:03.992Z,98044.34
2023-02-02T07:30:30.307Z,98044.16
2023-02-02T07:32:56.577Z,98049.13
2023-02-02T07:35:23.431Z,98047.09
2023-02-02T07:37:49.927Z,98060.44
2023-02-02T07:40:16.299Z,98059.94
2023-02-02T07:42:44.364Z,98068.78
2023-02-02T07:45:26.827Z,98080.63
2023-02-02T07:47:54.095Z,98086.69
2023-02-02T07:50:20.348Z,98089.94
2023-02-02T07:52:46.772Z,98096.34
2023-02-02T07:55:26.259Z,98095.56
2023-02-02T07:57:52.740Z,98103.44
2023-02-02T08:00:24.974Z,98103.56
2023-02-02T08:02:51.305Z,98108.69
2023-02-02T08:05:17.670Z,98121.53
2023-02-02T08:07:44.120Z,98114.34
2023-02-02T08:10:10.407Z,98113.72
2023-02-02T08:12:36.682Z,98123.00
2023-02-02T08:15:02.963Z,98129.34
2023-02-02T08:17:29.262Z,98116.94
2023-02-02T08:19:55.499Z,98129.03
2023-02-02T08:22:21.902Z,98133.19
2023-02-02T08:24:48.125Z,98127.75
2023-02-02T08:27:14.483Z,98142.00
2023-02-02T08:29:40.750Z,98140.13
2023-02-02T08:32:07.097Z,98141.75
2023-02-02T08:34:33.319Z,98143.59
2023-02-02T08:36:59.643Z,98142.78
2023-02-02T08:39:25.993Z,98149.44
2023-02-02T08:41:52.361Z,98148.03
2023-02-02T08:44:18.658Z,98145.28
2023-02-02T08:46:46.135Z,98146.75
2023-02-02T08:49:12.463Z,98141.06
2023-02-02T08:51:38.721Z,98159.41
2023-02-02T08:54:05.013Z,98162.81
2023-02-02T08:56:31.302Z,98154.69
2023-02-02T08:58:57.685Z,98159.69
2023-02-02T09:01:24.060Z,98153.22
2023-02-02T09:06:34.890Z,98156.00
2023-02-02T09:09:01.145Z,98159.41
2023-02-02T09:11:27.518Z,98153.94
2023-02-02T09:13:53.893Z,98159.75
2023-02-02T09:16:20.276Z,98154.88
2023-02-02T09:18:46.629Z,98160.91
2023-02-02T09:21:13.058Z,98163.81
2023-02-02T09:23:39.372Z,98162.44
2023-02-02T09:26:05.642Z,98166.34
2023-02-02T09:28:32.043Z,98167.66
2023-02-02T09:30:58.423Z,98170.75
2023-02-02T09:33:24.745Z,98181.66
2023-02-02T09:35:51.083Z,98182.94
2023-02-02T09:38:19.828Z,98183.19
2023-02-02T09:40:46.093Z,98178.88
2023-02-02T09:43:12.383Z,98187.94
2023-02-02T09:45:38.683Z,98186.28
2023-02-02T09:48:05.004Z,98184.69
2023-02-02T09:50:31.412Z,98191.03
2023-02-02T09:52:57.838Z,98197.44
2023-02-02T09:55:24.499Z,98191.28
2023-02-02T09:57:51.149Z,98196.84
2023-02-02T10:00:17.437Z,98199.50
2023-02-02T10:02:43.772Z,98193.34
2023-02-02T10:05:10.044Z,98197.91
2023-02-02T10:07:36.337Z,98195.47
2023-02-02T10:10:02.836Z,98195.47
2023-02-02T10:12:29.409Z,98197.31
2023-02-02T10:14:55.811Z,98203.66
2023-02-02T10:17:22.227Z,98203.91
2023-02-02T10:19:48.529Z,98217.47
2023-02-02T10:22:14.833Z,98215.84
2023-02-02T10:24:41.071Z,98221.19
2023-02-02T10:27:07.439Z,98225.94
2023-02-02T10:29:48.151Z,98222.44
2023-02-02T10:32:15.061Z,98226.41
2023-02-02T10:34:41.401Z,98226.41
2023-02-02T10:37:07.711Z,98220.25
2023-02-02T10:39:34.044Z,98235.41
2023-02-02T10:42:00.403Z,98235.41
2023-02-02T10:44:26.758Z,98240.75
2023-02-02T10:46:53.160Z,98249.31
2023-02-02T10:49:19.449Z,98250.50
2023-02-02T10:51:45.794Z,98247.94
2023-02-02T10:54:12.087Z,98255.00
2023-02-02T10:56:38.339Z,98261.84
2023-02-02T10:59:07.878Z,98261.53
2023-02-02T11:01:34.180Z,98262.56
2023-02-02T11:04:00.476Z,98258.25
2023-02-02T11:06:26.769Z,98268.94
2023-02-02T11:08:53.028Z,98275.44
2023-02-02T11:11:19.281Z,98281.34
2023-02-02T11:13:46.609Z,98285.28
2023-02-02T11:16:13.064Z,98285.97
2023-02-02T11:18:39.329Z,98284.22
2023-02-02T11:21:05.739Z,98278.75
2023-02-02T11:23:32.024Z,98277.78
2023-02-02T11:25:58.338Z,98275.25
2023-02-02T11:28:24.636Z,98280.09
2023-02-02T11:30:51.064Z,98283.34
2023-02-02T11:33:17.468Z,98288.69
2023-02-02T11:35:43.729Z,98298.78
2023-02-02T11:38:10.056Z,98299.81
2023-02-02T11:40:36.371Z,98302.47
2023-02-02T11:43:02.692Z,98308.41
2023-02-02T11:45:29.075Z,98297.28
2023-02-02T11:47:55.399Z,98297.72
2023-02-02T11:50:24.012Z,98305.91
2023-02-02T11:52:50.674Z,98301.09
2023-02-02T11:55:16.952Z,98302.69
2023-02-02T11:57:43.215Z,98305.06
2023-02-02T12:00:10.659Z,98303.16
2023-02-02T12:02:36.969Z,98306.56
2023-02-02T12:05:03.246Z,98314.16
2023-02-02T12:07:29.729Z,98316.22
2023-02-02T12:09:56.272Z,98307.53
2023-02-02T12:12:22.604Z,98315.13
2023-02-02T12:14:49.016Z,98298.94
2023-02-02T12:17:15.443Z,98312.16
2023-02-02T12:19:41.742Z,98303.72
2023-02-02T12:22:11.435Z,98306.22
2023-02-02T12:24:38.009Z,98304.41
2023-02-02T12:27:04.369Z,98300.25
2023-02-02T12:29:30.758Z,98304.91
2023-02-02T12:31:57.113Z,98311.34
2023-02-02T12:34:23.451Z,98302.09
2023-02-02T12:36:49.739Z,98305.38
2023-02-02T12:39:16.059Z,98305.25
2023-02-02T12:41:42.513Z,98304.28
2023-02-02T12:44:08.929Z,98303.16
2023-02-02T12:46:35.368Z,98285.88
2023-02-02T12:49:01.856Z,98290.41
2023-02-02T12:51:28.156Z,98286.34
2023-02-02T12:54:33.167Z,98290.88
2023-02-02T12:56:41.069Z,98289.00
2023-02-02T12:59:07.489Z,98288.19
2023-02-02T13:01:33.917Z,98298.13
2023-02-02T13:04:00.317Z,98292.97
2023-02-02T13:06:26.612Z,98293.22
2023-02-02T13:08:52.941Z,98294.56
2023-02-02T13:14:09.617Z,98290.69
2023-02-02T13:16:36.005Z,98291.66
2023-02-02T13:19:02.455Z,98294.28
2023-02-02T13:21:28.775Z,98285.13
2023-02-02T13:23:55.112Z,98290.38
2023-02-02T13:26:21.715Z,98288.72
2023-02-02T13:28:48.004Z,98286.78
2023-02-02T13:31:14.511Z,98286.91
2023-02-02T13:33:40.850Z,98277.19
2023-02-02T13:36:07.157Z,98275.75
2023-02-02T13:38:33.878Z,98288.72
2023-02-02T13:41:00.245Z,98288.06
2023-02-02T13:43:26.939Z,98290.09
2023-02-02T13:45:53.394Z,98288.16
2023-02-02T13:48:21.690Z,98289.69
2023-02-02T13:50:48.062Z,98285.31
2023-02-02T13:53:14.345Z,98286.28
2023-02-02T13:55:40.676Z,98287.25
2023-02-02T13:58:07.104Z,98289.84
2023-02-02T14:00:33.397Z,98288.69
2023-02-02T14:02:59.709Z,98284.91
2023-02-02T14:05:26.383Z,98285.84
2023-02-02T14:07:54.280Z,98299.66
2023-02-02T14:10:20.547Z,98287.03
2023-02-02T14:12:46.842Z,98301.09
2023-02-02T14:15:14.424Z,98290.31
2023-02-02T14:17:40.730Z,98292.66
2023-02-02T14:20:07.017Z,98305.09
2023-02-02T14:22:33.296Z,98306.63
2023-02-02T14:24:59.553Z,98313.50
2023-02-02T14:27:26.632Z,98313.16
2023-02-02T14:29:53.284Z,98315.72
2023-02-02T14:32:19.523Z,98318.28
2023-02-02T14:34:45.815Z,98319.56
2023-02-02T14:37:12.190Z,98328.06
2023-02-02T14:39:39.810Z,98324.22
2023-02-02T14:42:06.156Z,98329.22
2023-02-02T14:44:32.478Z,98341.19
2023-02-02T14:46:58.761Z,98336.31
2023-02-02T14:49:25.248Z,98338.41
2023-02-02T14:51:51.660Z,98335.19
2023-02-02T14:54:18.133Z,98340.97
2023-02-02T14:56:44.359Z,98343.88
2023-02-02T14:59:10.873Z,98351.28
2023-02-02T15:01:37.266Z,98352.59
2023-02-02T15:04:03.603Z,98357.94
2023-02-02T15:06:29.940Z,98353.84
2023-02-02T15:08:56.311Z,98358.59
2023-02-02T15:11:22.713Z,98359.66
2023-02-02T15:13:48.990Z,98361.50
2023-02-02T15:16:15.337Z,98363.34
2023-02-02T15:18:41.675Z,98373.25
2023-02-02T15:21:07.955Z,98374.28
2023-02-02T15:23:34.385Z,98379.06
2023-02-02T15:26:00.951Z,98376.78
2023-02-02T15:28:29.279Z,98390.38
2023-02-02T15:33:41.877Z,98385.75
2023-02-02T15:36:08.526Z,98388.84
2023-02-02T15:38:35.284Z,98395.47
2023-02-02T15:41:01.577Z,98398.38
2023-02-02T15:43:27.951Z,98401.06
2023-02-02T15:45:54.512Z,98403.97
2023-02-02T15:48:20.843Z,98406.28
2023-02-02T15:50:47.234Z,98408.34
2023-02-02T15:53:13.687Z,98406.94
2023-02-02T15:55:40.367Z,98418.91
2023-02-02T15:58:06.704Z,98425.50
2023-02-02T16:00:33.018Z,98420.63
2023-02-02T16:02:59.570Z,98426.41
2023-02-02T16:05:26.167Z,98426.63
2023-02-02T16:08:03.569Z,98428.94
2023-02-02T16:10:31.151Z,98435.56
2023-02-02T16:12:57.573Z,98441.91
2023-02-02T16:15:24.138Z,98437.03
2023-02-02T16:17:50.632Z,98445.88
2023-02-02T16:20:16.975Z,98442.38
2023-02-02T16:22:45.844Z,98449.56
2023-02-02T16:25:13.020Z,98449.78
2023-02-02T16:27:39.281Z,98459.44
2023-02-02T16:30:05.618Z,98460.44
2023-02-02T16:32:31.888Z,98475.44
2023-02-02T16:34:58.228Z,98476.22
2023-02-02T16:37:24.532Z,98482.38
2023-02-02T16:39:50.976Z,98485.03
2023-02-02T16:42:17.241Z,98493.41
2023-02-02T16:44:43.495Z,98493.41
2023-02-02T16:47:09.767Z,98494.22
2023-02-02T16:49:36.203Z,98488.66
2023-02-02T16:52:02.590Z,98496.44
2023-02-02T16:54:28.889Z,98491.69
2023-02-02T16:56:55.246Z,98490.88
2023-02-02T16:59:21.573Z,98487.16
2023-02-02T17:01:47.879Z,98487.16
2023-02-02T17:06:58.228Z,98495.97
2023-02-02T17:09:25.769Z,98495.19
2023-02-02T17:11:52.126Z,98498.63
2023-02-02T17:14:18.543Z,98494.13
2023-02-02T17:16:44.789Z,98509.31
2023-02-02T17:19:11.155Z,98501.09
2023-02-02T17:21:37.589Z,98492.28
2023-02-02T17:24:03.861Z,98495.53
2023-02-02T17:26:30.300Z,98491.81
2023-02-02T17:28:56.584Z,98496.13
2023-02-02T17:31:22.946Z,98485.47
2023-02-02T17:33:50.568Z,98493.22
2023-02-02T17:36:16.935Z,98494.25
2023-02-02T17:38:43.222Z,98492.41
2023-02-02T17:41:09.505Z,98502.84
2023-02-02T17:43:38.134Z,98494.84
2023-02-02T17:46:04.655Z,98499.34
2023-02-02T17:48:31.016Z,98501.81
2023-02-02T17:50:57.373Z,98506.91
2023-02-02T17:53:23.714Z,98514.94
2023-02-02T17:55:50.082Z,98521.88
2023-02-02T17:58:16.457Z,98527.22
2023-02-02T18:00:42.726Z,98525.38
2023-02-02T18:03:09.160Z,98521.06
2023-02-02T18:05:35.503Z,98512.81
2023-02-02T18:08:01.964Z,98505.63
2023-02-02T18:10:28.362Z,98498.00
2023-02-02T18:12:54.648Z,98509.75
2023-02-02T18:15:20.988Z,98516.31
2023-02-02T18:17:47.279Z,98518.31
2023-02-02T18:20:13.708Z,98523.41
2023-02-02T18:22:40.098Z,98516.09
2023-02-02T18:25:08.563Z,98519.81
2023-02-02T18:27:34.901Z,98526.56
2023-02-02T18:30:01.271Z,98517.97
2023-02-02T18:32:27.728Z,98524.84
2023-02-02T18:34:57.647Z,98522.06
2023-02-02T18:37:23.888Z,98526.56
2023-02-02T18:39:50.286Z,98520.38
2023-02-02T18:42:16.564Z,98517.81
2023-02-02T18:44:42.911Z,98513.38
2023-02-02T18:47:09.240Z,98517.09
2023-02-02T18:49:35.592Z,98510.31
2023-02-02T18:52:01.898Z,98507.16
2023-02-02T18:54:28.166Z,98500.28
2023-02-02T18:56:54.563Z,98502.56
2023-02-02T18:59:20.970Z,98490.91
2023-02-02T19:01:47.318Z,98492.63
2023-02-02T19:04:13.743Z,98485.75
2023-02-02T19:06:40.308Z,98483.44
2023-02-02T19:09:08.191Z,98484.81
2023-02-02T19:11:34.728Z,98482.69
2023-02-02T19:14:01.079Z,98471.53
2023-02-02T19:16:27.453Z,98476.88
2023-02-02T19:18:53.754Z,98478.72
2023-02-02T19:21:20.059Z,98476.88
2023-02-02T19:23:46.310Z,98475.81
2023-02-02T19:26:12.608Z,98472.56
2023-02-02T19:28:38.898Z,98472.22
2023-02-02T19:31:05.305Z,98473.19
2023-02-02T19:33:31.764Z,98473.88
2023-02-02T19:35:58.102Z,98475.44
2023-02-02T19:38:24.445Z,98467.88
2023-02-02T19:40:50.826Z,98460.59
2023-02-02T19:43:17.134Z,98457.00
2023-02-02T19:45:43.476Z,98456.91
2023-02-02T19:48:09.805Z,98447.16
2023-02-02T19:50:36.092Z,98445.22
2023-02-02T19:53:05.453Z,98448.63
2023-02-02T19:55:31.787Z,98457.09
2023-02-02T19:57:58.162Z,98446.31
2023-02-02T20:00:25.458Z,98450.53
2023-02-02T20:02:52.194Z,98439.69
2023-02-02T20:05:18.636Z,98436.94
2023-02-02T20:07:45.036Z,98443.81
2023-02-02T20:10:11.353Z,98437.31
2023-02-02T20:12:37.656Z,98442.56
2023-02-02T20:15:03.959Z,98438.75
2023-02-02T20:17:30.313Z,98429.56
2023-02-02T20:19:56.595Z,98423.84
2023-02-02T20:22:22.847Z,98425.38
2023-02-02T20:24:49.147Z,98425.84
2023-02-02T20:27:15.475Z,98417.47
2023-02-02T20:29:41.867Z,98414.47
2023-02-02T20:32:08.243Z,98410.66
2023-02-02T20:34:35.108Z,98417.28
2023-02-02T20:37:01.489Z,98408.25
2023-02-02T20:39:27.739Z,98410.44
2023-02-02T20:41:53.989Z,98415.97
2023-02-02T20:44:20.340Z,98418.88
2023-02-02T20:46:46.586Z,98417.47
2023-02-02T20:49:12.900Z,98419.28
2023-02-02T20:51:39.313Z,98426.47
2023-02-02T20:54:05.616Z,98424.44
2023-02-02T20:56:31.888Z,98421.88
2023-02-02T20:58:58.155Z,98416.59
2023-02-02T21:01:24.473Z,98415.38
2023-02-02T21:03:50.735Z,98413.63
2023-02-02T21:06:17.019Z,98419.06
2023-02-02T21:08:43.537Z,98411.13
2023-02-02T21:11:09.868Z,98420.53
2023-02-02T21:13:36.210Z,98425.41
2023-02-02T21:16:02.496Z,98419.81
2023-02-02T21:18:28.797Z,98415.03
2023-02-02T21:20:55.111Z,98416.66
2023-02-02T21:23:21.387Z,98416.66
2023-02-02T21:25:47.625Z,98415.84
2023-02-02T21:28:14.025Z,98398.97
2023-02-02T21:30:40.349Z,98399.47
2023-02-02T21:33:06.828Z,98402.31
2023-02-02T21:35:33.120Z,98398.97
2023-02-02T21:37:59.434Z,98404.47
2023-02-02T21:43:11.028Z,98392.53
2023-02-02T21:45:37.389Z,98395.13
2023-02-02T21:48:03.722Z,98395.59
2023-02-02T21:50:30.112Z,98388.28
2023-02-02T21:52:56.446Z,98392.75
2023-02-02T21:55:22.742Z,98388.13
2023-02-02T21:57:49.062Z,98387.22
2023-02-02T22:00:15.466Z,98392.22
2023-02-02T22:02:44.964Z,98388.38
2023-02-02T22:05:11.538Z,98382.72
2023-02-02T22:07:37.913Z,98379.69
2023-02-02T22:10:04.206Z,98371.59
2023-02-02T22:12:30.562Z,98382.72
2023-02-02T22:14:56.808Z,98377.06
2023-02-02T22:17:23.070Z,98383.66
2023-02-02T22:19:49.342Z,98379.06
2023-02-02T22:22:15.650Z,98381.13
2023-02-02T22:24:42.017Z,98379.66
2023-02-02T22:27:08.304Z,98376.78
2023-02-02T22:29:34.584Z,98368.78
2023-02-02T22:32:01.019Z,98375.19
2023-02-02T22:34:27.524Z,98382.75
2023-02-02T22:36:53.886Z,98382.53
2023-02-02T22:39:20.175Z,98377.53
2023-02-02T22:41:46.477Z,98373.53
2023-02-02T22:44:12.804Z,98382.97
2023-02-02T22:46:39.173Z,98381.44
2023-02-02T22:49:05.630Z,98373.78
2023-02-02T22:51:34.320Z,98375.75
2023-02-02T22:54:00.574Z,98373.16
2023-02-02T22:56:26.943Z,98381.50
2023-02-02T22:58:53.244Z,98386.13
2023-02-02T23:01:19.799Z,98382.53
2023-02-02T23:03:46.147Z,98392.22
2023-02-02T23:06:12.421Z,98385.16
2023-02-02T23:08:38.736Z,98376.22
2023-02-02T23:11:05.028Z,98371.00
2023-02-02T23:13:31.275Z,98378.84
2023-02-02T23:15:57.629Z,98385.66
2023-02-02T23:18:24.021Z,98396.94
2023-02-02T23:20:50.428Z,98389.66
2023-02-02T23:23:16.757Z,98378.03
2023-02-02T23:25:43.072Z,98368.06
2023-02-02T23:28:09.483Z,98360.97
2023-02-02T23:33:51.872Z,98349.44
2023-02-02T23:36:18.208Z,98342.94
2023-02-02T23:38:44.733Z,98337.47
2023-02-02T23:41:11.028Z,98344.31
2023-02-02T23:43:37.365Z,98341.50
2023-02-02T23:46:03.686Z,98350.97
2023-02-02T23:48:29.979Z,98352.44
2023-02-02T23:50:56.281Z,98359.22
2023-02-02T23:53:22.625Z,98360.72
2023-02-02T23:55:48.924Z,98358.47
2023-02-02T23:58:15.468Z,98349.56
